sensor_id;sensor_type;location;lat;lon;timestamp;P1;durP1;ratioP1;P2;durP2;ratioP2
30068;SDS011;16894;49.456;10.644;2023-10-19T00:00:31;916.63;;;836.70;;
30068;SDS011;16894;49.456;10.644;2023-10-19T00:02:58;888.47;;;811.78;;
30068;SDS011;16894;49.456;10.644;2023-10-19T00:05:27;855.47;;;783.55;;
30068;SDS011;16894;49.456;10.644;2023-10-19T00:07:55;887.55;;;810.92;;
30068;SDS011;16894;49.456;10.644;2023-10-19T00:10:25;869.42;;;796.72;;
30068;SDS011;16894;49.456;10.644;2023-10-19T00:12:54;866.95;;;793.10;;
30068;SDS011;16894;49.456;10.644;2023-10-19T00:15:36;974.10;;;886.80;;
30068;SDS011;16894;49.456;10.644;2023-10-19T00:18:12;919.53;;;838.15;;
30068;SDS011;16894;49.456;10.644;2023-10-19T00:20:40;912.13;;;833.05;;
30068;SDS011;16894;49.456;10.644;2023-10-19T00:23:10;951.78;;;865.38;;
30068;SDS011;16894;49.456;10.644;2023-10-19T00:25:39;950.28;;;866.35;;
30068;SDS011;16894;49.456;10.644;2023-10-19T00:28:09;971.45;;;882.38;;
30068;SDS011;16894;49.456;10.644;2023-10-19T00:30:39;973.05;;;883.92;;
30068;SDS011;16894;49.456;10.644;2023-10-19T00:33:07;996.90;;;903.42;;
30068;SDS011;16894;49.456;10.644;2023-10-19T00:35:42;1007.85;;;912.85;;
30068;SDS011;16894;49.456;10.644;2023-10-19T00:38:12;1006.30;;;910.85;;
30068;SDS011;16894;49.456;10.644;2023-10-19T00:41:04;1018.65;;;921.75;;
30068;SDS011;16894;49.456;10.644;2023-10-19T00:43:31;1023.05;;;926.00;;
30068;SDS011;16894;49.456;10.644;2023-10-19T00:46:02;1008.50;;;914.22;;
30068;SDS011;16894;49.456;10.644;2023-10-19T00:48:32;1044.75;;;943.47;;
30068;SDS011;16894;49.456;10.644;2023-10-19T00:50:59;1072.72;;;965.35;;
30068;SDS011;16894;49.456;10.644;2023-10-19T00:53:37;1110.00;;;994.75;;
30068;SDS011;16894;49.456;10.644;2023-10-19T00:56:04;1070.13;;;960.28;;
30068;SDS011;16894;49.456;10.644;2023-10-19T00:58:34;1092.93;;;981.72;;
30068;SDS011;16894;49.456;10.644;2023-10-19T01:01:04;1074.65;;;966.00;;
30068;SDS011;16894;49.456;10.644;2023-10-19T01:03:31;1095.22;;;979.72;;
30068;SDS011;16894;49.456;10.644;2023-10-19T01:06:02;1087.43;;;976.90;;
30068;SDS011;16894;49.456;10.644;2023-10-19T01:08:36;1120.05;;;999.85;;
30068;SDS011;16894;49.456;10.644;2023-10-19T01:11:07;1100.13;;;984.30;;
30068;SDS011;16894;49.456;10.644;2023-10-19T01:13:37;1133.15;;;999.90;;
30068;SDS011;16894;49.456;10.644;2023-10-19T01:16:03;1134.78;;;999.90;;
30068;SDS011;16894;49.456;10.644;2023-10-19T01:18:30;1121.97;;;999.90;;
30068;SDS011;16894;49.456;10.644;2023-10-19T01:20:58;1109.53;;;989.45;;
30068;SDS011;16894;49.456;10.644;2023-10-19T01:23:29;1118.32;;;997.53;;
30068;SDS011;16894;49.456;10.644;2023-10-19T01:25:58;1097.23;;;986.77;;
30068;SDS011;16894;49.456;10.644;2023-10-19T01:28:29;1063.72;;;955.65;;
30068;SDS011;16894;49.456;10.644;2023-10-19T01:31:05;1078.78;;;969.00;;
30068;SDS011;16894;49.456;10.644;2023-10-19T01:33:40;1077.80;;;968.20;;
30068;SDS011;16894;49.456;10.644;2023-10-19T01:38:36;1036.10;;;926.65;;
30068;SDS011;16894;49.456;10.644;2023-10-19T01:41:02;1011.50;;;915.95;;
30068;SDS011;16894;49.456;10.644;2023-10-19T01:43:41;1035.45;;;932.35;;
30068;SDS011;16894;49.456;10.644;2023-10-19T01:46:09;1019.42;;;921.25;;
30068;SDS011;16894;49.456;10.644;2023-10-19T01:48:38;1025.22;;;927.05;;
30068;SDS011;16894;49.456;10.644;2023-10-19T01:51:09;1042.93;;;941.13;;
30068;SDS011;16894;49.456;10.644;2023-10-19T01:53:36;1041.78;;;939.58;;
30068;SDS011;16894;49.456;10.644;2023-10-19T01:56:08;1041.40;;;936.70;;
30068;SDS011;16894;49.456;10.644;2023-10-19T02:01:02;1087.50;;;966.63;;
30068;SDS011;16894;49.456;10.644;2023-10-19T02:03:34;1084.25;;;969.60;;
30068;SDS011;16894;49.456;10.644;2023-10-19T02:08:36;1068.03;;;943.38;;
30068;SDS011;16894;49.456;10.644;2023-10-19T02:11:05;1086.68;;;973.38;;
30068;SDS011;16894;49.456;10.644;2023-10-19T02:13:42;1077.72;;;967.05;;
30068;SDS011;16894;49.456;10.644;2023-10-19T02:16:10;1410.45;;;999.90;;
30068;SDS011;16894;49.456;10.644;2023-10-19T02:18:36;1060.63;;;955.13;;
30068;SDS011;16894;49.456;10.644;2023-10-19T02:21:03;1071.55;;;964.38;;
30068;SDS011;16894;49.456;10.644;2023-10-19T02:23:32;1159.25;;;999.90;;
30068;SDS011;16894;49.456;10.644;2023-10-19T02:26:00;1131.95;;;999.90;;
30068;SDS011;16894;49.456;10.644;2023-10-19T02:28:25;1117.28;;;991.00;;
30068;SDS011;16894;49.456;10.644;2023-10-19T02:30:56;1190.20;;;999.90;;
30068;SDS011;16894;49.456;10.644;2023-10-19T02:35:51;1212.50;;;983.33;;
30068;SDS011;16894;49.456;10.644;2023-10-19T02:38:17;1441.35;;;999.90;;
30068;SDS011;16894;49.456;10.644;2023-10-19T02:40:43;1200.67;;;999.90;;
30068;SDS011;16894;49.456;10.644;2023-10-19T02:43:10;1255.03;;;999.90;;
30068;SDS011;16894;49.456;10.644;2023-10-19T02:45:36;1312.50;;;999.90;;
30068;SDS011;16894;49.456;10.644;2023-10-19T02:48:02;1264.77;;;999.90;;
30068;SDS011;16894;49.456;10.644;2023-10-19T02:50:29;1321.60;;;999.90;;
30068;SDS011;16894;49.456;10.644;2023-10-19T02:52:55;1274.33;;;999.90;;
30068;SDS011;16894;49.456;10.644;2023-10-19T02:55:21;1477.55;;;999.90;;
30068;SDS011;16894;49.456;10.644;2023-10-19T02:57:50;1172.82;;;999.90;;
30068;SDS011;16894;49.456;10.644;2023-10-19T03:00:16;1129.30;;;999.90;;
30068;SDS011;16894;49.456;10.644;2023-10-19T03:02:46;1119.35;;;999.90;;
30068;SDS011;16894;49.456;10.644;2023-10-19T03:05:13;1101.32;;;987.70;;
30068;SDS011;16894;49.456;10.644;2023-10-19T03:07:40;1085.13;;;976.05;;
30068;SDS011;16894;49.456;10.644;2023-10-19T03:10:09;1060.97;;;954.97;;
30068;SDS011;16894;49.456;10.644;2023-10-19T03:13:00;1046.45;;;942.08;;
30068;SDS011;16894;49.456;10.644;2023-10-19T03:15:29;1124.13;;;998.80;;
30068;SDS011;16894;49.456;10.644;2023-10-19T03:17:57;1016.00;;;916.40;;
30068;SDS011;16894;49.456;10.644;2023-10-19T03:20:23;1058.17;;;954.67;;
30068;SDS011;16894;49.456;10.644;2023-10-19T03:22:50;1055.38;;;951.38;;
30068;SDS011;16894;49.456;10.644;2023-10-19T03:25:16;1052.53;;;946.73;;
30068;SDS011;16894;49.456;10.644;2023-10-19T03:28:02;1049.57;;;943.65;;
30068;SDS011;16894;49.456;10.644;2023-10-19T03:30:34;1023.30;;;924.88;;
30068;SDS011;16894;49.456;10.644;2023-10-19T03:33:07;1012.53;;;916.53;;
30068;SDS011;16894;49.456;10.644;2023-10-19T03:35:37;1006.30;;;911.10;;
30068;SDS011;16894;49.456;10.644;2023-10-19T03:38:06;979.25;;;888.95;;
30068;SDS011;16894;49.456;10.644;2023-10-19T03:40:47;1000.75;;;906.92;;
30068;SDS011;16894;49.456;10.644;2023-10-19T03:43:17;965.70;;;874.90;;
30068;SDS011;16894;49.456;10.644;2023-10-19T03:45:46;998.45;;;904.30;;
30068;SDS011;16894;49.456;10.644;2023-10-19T03:48:18;1041.68;;;941.45;;
30068;SDS011;16894;49.456;10.644;2023-10-19T03:50:51;1011.53;;;916.20;;
30068;SDS011;16894;49.456;10.644;2023-10-19T03:53:22;1059.43;;;951.97;;
30068;SDS011;16894;49.456;10.644;2023-10-19T03:58:15;1093.73;;;979.90;;
30068;SDS011;16894;49.456;10.644;2023-10-19T04:00:41;1043.15;;;938.35;;
30068;SDS011;16894;49.456;10.644;2023-10-19T04:03:09;1143.78;;;996.70;;
30068;SDS011;16894;49.456;10.644;2023-10-19T04:05:35;1120.90;;;999.47;;
30068;SDS011;16894;49.456;10.644;2023-10-19T04:08:04;1073.25;;;960.75;;
30068;SDS011;16894;49.456;10.644;2023-10-19T04:10:38;1087.13;;;976.63;;
30068;SDS011;16894;49.456;10.644;2023-10-19T04:13:09;1112.72;;;993.90;;
30068;SDS011;16894;49.456;10.644;2023-10-19T04:15:36;1044.15;;;941.30;;
30068;SDS011;16894;49.456;10.644;2023-10-19T04:18:02;1049.23;;;941.50;;
30068;SDS011;16894;49.456;10.644;2023-10-19T04:20:33;1053.28;;;947.05;;
30068;SDS011;16894;49.456;10.644;2023-10-19T04:23:17;1048.45;;;943.83;;
30068;SDS011;16894;49.456;10.644;2023-10-19T04:25:45;969.28;;;878.63;;
30068;SDS011;16894;49.456;10.644;2023-10-19T04:28:13;1043.47;;;939.67;;
30068;SDS011;16894;49.456;10.644;2023-10-19T04:30:39;923.40;;;840.72;;
30068;SDS011;16894;49.456;10.644;2023-10-19T04:33:05;953.88;;;866.00;;
30068;SDS011;16894;49.456;10.644;2023-10-19T04:35:37;921.65;;;840.45;;
30068;SDS011;16894;49.456;10.644;2023-10-19T04:38:06;841.95;;;770.63;;
30068;SDS011;16894;49.456;10.644;2023-10-19T04:40:31;867.25;;;792.95;;
30068;SDS011;16894;49.456;10.644;2023-10-19T04:42:57;939.03;;;852.42;;
30068;SDS011;16894;49.456;10.644;2023-10-19T04:45:23;951.63;;;865.70;;
30068;SDS011;16894;49.456;10.644;2023-10-19T04:47:52;959.90;;;870.55;;
30068;SDS011;16894;49.456;10.644;2023-10-19T04:50:18;973.55;;;874.58;;
30068;SDS011;16894;49.456;10.644;2023-10-19T04:52:44;997.22;;;905.55;;
30068;SDS011;16894;49.456;10.644;2023-10-19T04:55:09;968.73;;;880.60;;
30068;SDS011;16894;49.456;10.644;2023-10-19T04:57:35;998.00;;;903.90;;
30068;SDS011;16894;49.456;10.644;2023-10-19T05:00:01;1029.03;;;930.97;;
30068;SDS011;16894;49.456;10.644;2023-10-19T05:02:28;958.65;;;868.58;;
30068;SDS011;16894;49.456;10.644;2023-10-19T05:04:56;931.53;;;847.95;;
30068;SDS011;16894;49.456;10.644;2023-10-19T05:07:21;923.57;;;839.03;;
30068;SDS011;16894;49.456;10.644;2023-10-19T05:09:47;1048.33;;;943.57;;
30068;SDS011;16894;49.456;10.644;2023-10-19T05:12:13;1006.03;;;908.57;;
30068;SDS011;16894;49.456;10.644;2023-10-19T05:14:40;908.10;;;826.78;;
30068;SDS011;16894;49.456;10.644;2023-10-19T05:17:06;899.08;;;819.97;;
30068;SDS011;16894;49.456;10.644;2023-10-19T05:19:37;961.00;;;870.63;;
30068;SDS011;16894;49.456;10.644;2023-10-19T05:22:04;957.67;;;870.03;;
30068;SDS011;16894;49.456;10.644;2023-10-19T05:24:31;1010.67;;;907.42;;
30068;SDS011;16894;49.456;10.644;2023-10-19T05:26:57;969.17;;;877.45;;
30068;SDS011;16894;49.456;10.644;2023-10-19T05:29:23;1046.88;;;943.42;;
30068;SDS011;16894;49.456;10.644;2023-10-19T05:31:50;964.88;;;877.15;;
30068;SDS011;16894;49.456;10.644;2023-10-19T05:34:21;1008.28;;;909.47;;
30068;SDS011;16894;49.456;10.644;2023-10-19T05:36:48;900.30;;;820.50;;
30068;SDS011;16894;49.456;10.644;2023-10-19T05:39:14;1016.17;;;913.42;;
30068;SDS011;16894;49.456;10.644;2023-10-19T05:41:41;932.30;;;849.25;;
30068;SDS011;16894;49.456;10.644;2023-10-19T05:44:06;956.20;;;860.92;;
30068;SDS011;16894;49.456;10.644;2023-10-19T05:46:33;1088.65;;;954.80;;
30068;SDS011;16894;49.456;10.644;2023-10-19T05:48:58;873.40;;;796.80;;
30068;SDS011;16894;49.456;10.644;2023-10-19T05:51:26;936.45;;;847.25;;
30068;SDS011;16894;49.456;10.644;2023-10-19T05:53:52;869.43;;;794.27;;
30068;SDS011;16894;49.456;10.644;2023-10-19T05:56:19;874.65;;;793.08;;
30068;SDS011;16894;49.456;10.644;2023-10-19T05:58:46;928.00;;;840.67;;
30068;SDS011;16894;49.456;10.644;2023-10-19T06:01:16;949.10;;;854.92;;
30068;SDS011;16894;49.456;10.644;2023-10-19T06:03:43;890.33;;;811.33;;
30068;SDS011;16894;49.456;10.644;2023-10-19T06:06:08;861.95;;;787.50;;
30068;SDS011;16894;49.456;10.644;2023-10-19T06:08:34;878.28;;;803.22;;
30068;SDS011;16894;49.456;10.644;2023-10-19T06:11:01;894.75;;;816.03;;
30068;SDS011;16894;49.456;10.644;2023-10-19T06:13:28;950.42;;;861.47;;
30068;SDS011;16894;49.456;10.644;2023-10-19T06:15:54;918.00;;;834.33;;
30068;SDS011;16894;49.456;10.644;2023-10-19T06:18:20;875.90;;;799.45;;
30068;SDS011;16894;49.456;10.644;2023-10-19T06:20:46;870.83;;;792.97;;
30068;SDS011;16894;49.456;10.644;2023-10-19T06:23:13;908.30;;;827.08;;
30068;SDS011;16894;49.456;10.644;2023-10-19T06:25:39;938.60;;;853.65;;
30068;SDS011;16894;49.456;10.644;2023-10-19T06:28:08;903.08;;;819.70;;
30068;SDS011;16894;49.456;10.644;2023-10-19T06:30:34;1181.25;;;976.05;;
30068;SDS011;16894;49.456;10.644;2023-10-19T06:33:00;870.07;;;795.03;;
30068;SDS011;16894;49.456;10.644;2023-10-19T06:35:26;867.45;;;789.67;;
30068;SDS011;16894;49.456;10.644;2023-10-19T06:37:53;994.92;;;901.58;;
30068;SDS011;16894;49.456;10.644;2023-10-19T06:40:22;877.75;;;800.20;;
30068;SDS011;16894;49.456;10.644;2023-10-19T06:42:48;873.38;;;799.00;;
30068;SDS011;16894;49.456;10.644;2023-10-19T06:45:15;956.13;;;867.55;;
30068;SDS011;16894;49.456;10.644;2023-10-19T06:47:42;994.22;;;896.25;;
30068;SDS011;16894;49.456;10.644;2023-10-19T06:50:10;938.05;;;850.50;;
30068;SDS011;16894;49.456;10.644;2023-10-19T06:52:41;977.35;;;879.33;;
30068;SDS011;16894;49.456;10.644;2023-10-19T06:55:08;958.90;;;869.50;;
30068;SDS011;16894;49.456;10.644;2023-10-19T06:57:46;976.40;;;885.08;;
30068;SDS011;16894;49.456;10.644;2023-10-19T07:00:14;1097.72;;;978.28;;
30068;SDS011;16894;49.456;10.644;2023-10-19T07:02:43;1999.90;;;999.90;;
30068;SDS011;16894;49.456;10.644;2023-10-19T07:05:10;885.25;;;805.60;;
30068;SDS011;16894;49.456;10.644;2023-10-19T07:07:37;996.65;;;889.67;;
30068;SDS011;16894;49.456;10.644;2023-10-19T07:10:07;1088.18;;;899.55;;
30068;SDS011;16894;49.456;10.644;2023-10-19T07:12:35;1034.90;;;932.30;;
30068;SDS011;16894;49.456;10.644;2023-10-19T07:15:02;938.63;;;852.75;;
30068;SDS011;16894;49.456;10.644;2023-10-19T07:17:35;959.50;;;867.13;;
30068;SDS011;16894;49.456;10.644;2023-10-19T07:20:03;1020.15;;;923.03;;
30068;SDS011;16894;49.456;10.644;2023-10-19T07:22:34;1034.93;;;934.58;;
30068;SDS011;16894;49.456;10.644;2023-10-19T07:25:07;1096.32;;;978.55;;
30068;SDS011;16894;49.456;10.644;2023-10-19T07:27:34;1060.25;;;956.22;;
30068;SDS011;16894;49.456;10.644;2023-10-19T07:30:00;1094.03;;;987.20;;
30068;SDS011;16894;49.456;10.644;2023-10-19T07:32:30;1069.90;;;963.83;;
30068;SDS011;16894;49.456;10.644;2023-10-19T07:34:56;1096.63;;;982.60;;
30068;SDS011;16894;49.456;10.644;2023-10-19T07:37:22;974.40;;;885.17;;
30068;SDS011;16894;49.456;10.644;2023-10-19T07:39:47;1036.07;;;935.95;;
30068;SDS011;16894;49.456;10.644;2023-10-19T07:42:16;1085.43;;;978.23;;
30068;SDS011;16894;49.456;10.644;2023-10-19T07:44:42;1149.03;;;999.90;;
30068;SDS011;16894;49.456;10.644;2023-10-19T07:47:08;1166.27;;;999.90;;
30068;SDS011;16894;49.456;10.644;2023-10-19T07:49:38;1157.35;;;999.90;;
30068;SDS011;16894;49.456;10.644;2023-10-19T07:52:07;1309.50;;;999.90;;
30068;SDS011;16894;49.456;10.644;2023-10-19T07:54:33;1166.53;;;999.90;;
30068;SDS011;16894;49.456;10.644;2023-10-19T07:57:01;1131.00;;;999.90;;
30068;SDS011;16894;49.456;10.644;2023-10-19T07:59:30;1129.90;;;999.90;;
30068;SDS011;16894;49.456;10.644;2023-10-19T08:01:57;1134.05;;;999.90;;
30068;SDS011;16894;49.456;10.644;2023-10-19T08:04:23;1148.03;;;999.90;;
30068;SDS011;16894;49.456;10.644;2023-10-19T08:06:50;1126.07;;;999.90;;
30068;SDS011;16894;49.456;10.644;2023-10-19T08:09:16;1138.03;;;999.90;;
30068;SDS011;16894;49.456;10.644;2023-10-19T08:11:48;1125.95;;;999.90;;
30068;SDS011;16894;49.456;10.644;2023-10-19T08:14:14;1378.70;;;999.90;;
30068;SDS011;16894;49.456;10.644;2023-10-19T08:16:39;1143.33;;;999.90;;
30068;SDS011;16894;49.456;10.644;2023-10-19T08:19:07;1244.70;;;999.90;;
30068;SDS011;16894;49.456;10.644;2023-10-19T08:21:32;1224.78;;;999.90;;
30068;SDS011;16894;49.456;10.644;2023-10-19T08:23:59;1180.07;;;999.90;;
30068;SDS011;16894;49.456;10.644;2023-10-19T08:26:29;1232.80;;;999.90;;
30068;SDS011;16894;49.456;10.644;2023-10-19T08:28:55;1206.13;;;999.90;;
30068;SDS011;16894;49.456;10.644;2023-10-19T08:31:24;1281.03;;;999.90;;
30068;SDS011;16894;49.456;10.644;2023-10-19T08:33:50;1133.80;;;999.90;;
30068;SDS011;16894;49.456;10.644;2023-10-19T08:36:17;1150.10;;;999.90;;
30068;SDS011;16894;49.456;10.644;2023-10-19T08:38:45;1061.25;;;957.05;;
30068;SDS011;16894;49.456;10.644;2023-10-19T08:41:13;1088.40;;;976.92;;
30068;SDS011;16894;49.456;10.644;2023-10-19T08:43:40;1392.43;;;999.90;;
30068;SDS011;16894;49.456;10.644;2023-10-19T08:46:06;1361.95;;;999.90;;
30068;SDS011;16894;49.456;10.644;2023-10-19T08:48:35;1456.60;;;999.90;;
30068;SDS011;16894;49.456;10.644;2023-10-19T08:51:08;1776.03;;;999.90;;
30068;SDS011;16894;49.456;10.644;2023-10-19T08:53:38;1795.57;;;999.90;;
30068;SDS011;16894;49.456;10.644;2023-10-19T08:56:08;1622.55;;;959.22;;
30068;SDS011;16894;49.456;10.644;2023-10-19T08:58:34;1801.53;;;896.20;;
30068;SDS011;16894;49.456;10.644;2023-10-19T09:01:00;1143.43;;;562.13;;
30068;SDS011;16894;49.456;10.644;2023-10-19T09:03:35;1814.95;;;913.10;;
30068;SDS011;16894;49.456;10.644;2023-10-19T09:06:03;1175.50;;;587.35;;
30068;SDS011;16894;49.456;10.644;2023-10-19T09:08:30;1748.88;;;857.58;;
30068;SDS011;16894;49.456;10.644;2023-10-19T09:11:06;1999.90;;;999.90;;
30068;SDS011;16894;49.456;10.644;2023-10-19T09:13:46;1999.90;;;999.90;;
30068;SDS011;16894;49.456;10.644;2023-10-19T09:16:17;1999.90;;;999.90;;
30068;SDS011;16894;49.456;10.644;2023-10-19T09:18:47;1999.90;;;999.90;;
30068;SDS011;16894;49.456;10.644;2023-10-19T09:21:17;1999.90;;;999.90;;
30068;SDS011;16894;49.456;10.644;2023-10-19T09:23:49;1999.90;;;999.90;;
30068;SDS011;16894;49.456;10.644;2023-10-19T09:26:16;1999.90;;;999.90;;
30068;SDS011;16894;49.456;10.644;2023-10-19T09:28:45;1999.90;;;999.90;;
30068;SDS011;16894;49.456;10.644;2023-10-19T09:31:12;1999.90;;;999.90;;
30068;SDS011;16894;49.456;10.644;2023-10-19T09:33:42;1999.90;;;999.90;;
30068;SDS011;16894;49.456;10.644;2023-10-19T09:36:09;1999.90;;;999.90;;
30068;SDS011;16894;49.456;10.644;2023-10-19T09:38:49;1999.90;;;999.90;;
30068;SDS011;16894;49.456;10.644;2023-10-19T09:41:19;1999.90;;;999.90;;
30068;SDS011;16894;49.456;10.644;2023-10-19T09:43:47;1999.90;;;999.90;;
30068;SDS011;16894;49.456;10.644;2023-10-19T09:46:20;1999.90;;;999.90;;
30068;SDS011;16894;49.456;10.644;2023-10-19T09:48:48;1999.90;;;999.90;;
30068;SDS011;16894;49.456;10.644;2023-10-19T09:53:41;1999.90;;;999.90;;
30068;SDS011;16894;49.456;10.644;2023-10-19T09:56:12;1999.90;;;999.90;;
30068;SDS011;16894;49.456;10.644;2023-10-19T09:58:49;1999.90;;;999.90;;
30068;SDS011;16894;49.456;10.644;2023-10-19T10:01:18;1999.90;;;999.90;;
30068;SDS011;16894;49.456;10.644;2023-10-19T10:06:14;1999.90;;;999.90;;
30068;SDS011;16894;49.456;10.644;2023-10-19T10:08:44;1999.90;;;999.90;;
30068;SDS011;16894;49.456;10.644;2023-10-19T10:11:18;1999.90;;;999.90;;
30068;SDS011;16894;49.456;10.644;2023-10-19T10:13:48;1999.90;;;999.90;;
30068;SDS011;16894;49.456;10.644;2023-10-19T10:16:21;1999.90;;;999.90;;
30068;SDS011;16894;49.456;10.644;2023-10-19T10:18:49;1999.90;;;999.90;;
30068;SDS011;16894;49.456;10.644;2023-10-19T10:21:25;1999.90;;;999.90;;
30068;SDS011;16894;49.456;10.644;2023-10-19T10:23:53;1999.90;;;999.90;;
30068;SDS011;16894;49.456;10.644;2023-10-19T10:26:30;1999.90;;;999.90;;
30068;SDS011;16894;49.456;10.644;2023-10-19T10:29:22;1999.90;;;999.90;;
30068;SDS011;16894;49.456;10.644;2023-10-19T10:31:53;1999.90;;;999.90;;
30068;SDS011;16894;49.456;10.644;2023-10-19T10:37:03;1999.90;;;999.90;;
30068;SDS011;16894;49.456;10.644;2023-10-19T10:39:33;1999.90;;;999.90;;
30068;SDS011;16894;49.456;10.644;2023-10-19T10:42:04;1999.90;;;999.90;;
30068;SDS011;16894;49.456;10.644;2023-10-19T10:44:41;1999.90;;;999.90;;
30068;SDS011;16894;49.456;10.644;2023-10-19T10:47:09;1999.90;;;999.90;;
30068;SDS011;16894;49.456;10.644;2023-10-19T10:54:54;1999.90;;;999.90;;
30068;SDS011;16894;49.456;10.644;2023-10-19T10:57:21;1999.90;;;999.90;;
30068;SDS011;16894;49.456;10.644;2023-10-19T11:00:00;1999.90;;;999.90;;
30068;SDS011;16894;49.456;10.644;2023-10-19T11:02:34;1999.90;;;999.90;;
30068;SDS011;16894;49.456;10.644;2023-10-19T11:05:07;1999.90;;;999.90;;
30068;SDS011;16894;49.456;10.644;2023-10-19T11:07:40;1999.90;;;999.90;;
30068;SDS011;16894;49.456;10.644;2023-10-19T11:10:07;1999.90;;;999.90;;
30068;SDS011;16894;49.456;10.644;2023-10-19T11:12:35;1999.90;;;999.90;;
30068;SDS011;16894;49.456;10.644;2023-10-19T11:15:01;1999.90;;;999.90;;
30068;SDS011;16894;49.456;10.644;2023-10-19T11:17:41;1999.90;;;999.90;;
30068;SDS011;16894;49.456;10.644;2023-10-19T11:20:07;1999.90;;;999.90;;
30068;SDS011;16894;49.456;10.644;2023-10-19T11:22:47;1999.90;;;999.90;;
30068;SDS011;16894;49.456;10.644;2023-10-19T11:25:18;1999.90;;;999.90;;
30068;SDS011;16894;49.456;10.644;2023-10-19T11:27:57;1999.90;;;999.90;;
30068;SDS011;16894;49.456;10.644;2023-10-19T11:30:24;1999.90;;;999.90;;
30068;SDS011;16894;49.456;10.644;2023-10-19T11:32:54;1999.90;;;999.90;;
30068;SDS011;16894;49.456;10.644;2023-10-19T11:35:26;1999.90;;;999.90;;
30068;SDS011;16894;49.456;10.644;2023-10-19T11:37:55;1999.90;;;999.90;;
30068;SDS011;16894;49.456;10.644;2023-10-19T11:40:25;1999.90;;;999.90;;
30068;SDS011;16894;49.456;10.644;2023-10-19T11:45:24;1999.90;;;999.90;;
30068;SDS011;16894;49.456;10.644;2023-10-19T11:47:49;1999.90;;;999.90;;
30068;SDS011;16894;49.456;10.644;2023-10-19T11:50:16;1999.90;;;999.90;;
30068;SDS011;16894;49.456;10.644;2023-10-19T11:52:43;1999.90;;;999.90;;
30068;SDS011;16894;49.456;10.644;2023-10-19T11:55:10;1999.90;;;999.90;;
30068;SDS011;16894;49.456;10.644;2023-10-19T11:57:40;1999.90;;;999.90;;
30068;SDS011;16894;49.456;10.644;2023-10-19T12:00:08;1999.90;;;999.90;;
30068;SDS011;16894;49.456;10.644;2023-10-19T12:02:46;1999.90;;;999.90;;
30068;SDS011;16894;49.456;10.644;2023-10-19T12:05:13;1999.90;;;999.90;;
30068;SDS011;16894;49.456;10.644;2023-10-19T12:07:39;1999.90;;;999.90;;
30068;SDS011;16894;49.456;10.644;2023-10-19T12:10:08;1999.90;;;999.90;;
30068;SDS011;16894;49.456;10.644;2023-10-19T12:12:35;1999.90;;;999.90;;
30068;SDS011;16894;49.456;10.644;2023-10-19T12:15:02;1999.90;;;999.90;;
30068;SDS011;16894;49.456;10.644;2023-10-19T12:17:30;1999.90;;;999.90;;
30068;SDS011;16894;49.456;10.644;2023-10-19T12:22:22;1999.90;;;999.90;;
30068;SDS011;16894;49.456;10.644;2023-10-19T12:24:49;1999.90;;;999.90;;
30068;SDS011;16894;49.456;10.644;2023-10-19T12:27:16;1999.90;;;999.90;;
30068;SDS011;16894;49.456;10.644;2023-10-19T12:29:43;1999.90;;;999.90;;
30068;SDS011;16894;49.456;10.644;2023-10-19T12:32:09;1999.90;;;999.90;;
30068;SDS011;16894;49.456;10.644;2023-10-19T12:34:37;1999.90;;;999.90;;
30068;SDS011;16894;49.456;10.644;2023-10-19T12:37:02;1999.90;;;999.90;;
30068;SDS011;16894;49.456;10.644;2023-10-19T12:39:28;1999.90;;;999.90;;
30068;SDS011;16894;49.456;10.644;2023-10-19T12:42:00;1999.90;;;999.90;;
30068;SDS011;16894;49.456;10.644;2023-10-19T12:44:26;1999.90;;;999.90;;
30068;SDS011;16894;49.456;10.644;2023-10-19T12:46:54;1999.90;;;999.90;;
30068;SDS011;16894;49.456;10.644;2023-10-19T12:49:22;1999.90;;;999.90;;
30068;SDS011;16894;49.456;10.644;2023-10-19T12:51:51;1999.90;;;999.90;;
30068;SDS011;16894;49.456;10.644;2023-10-19T12:56:43;1999.90;;;999.90;;
30068;SDS011;16894;49.456;10.644;2023-10-19T12:59:08;1999.90;;;999.90;;
30068;SDS011;16894;49.456;10.644;2023-10-19T13:01:34;1999.90;;;999.90;;
30068;SDS011;16894;49.456;10.644;2023-10-19T13:04:00;1999.90;;;999.90;;
30068;SDS011;16894;49.456;10.644;2023-10-19T13:06:39;1999.90;;;999.90;;
30068;SDS011;16894;49.456;10.644;2023-10-19T13:09:05;1999.90;;;999.90;;
30068;SDS011;16894;49.456;10.644;2023-10-19T13:11:34;1999.90;;;999.90;;
30068;SDS011;16894;49.456;10.644;2023-10-19T13:14:00;1999.90;;;999.90;;
30068;SDS011;16894;49.456;10.644;2023-10-19T13:16:31;1999.90;;;999.90;;
30068;SDS011;16894;49.456;10.644;2023-10-19T13:18:57;1999.90;;;999.90;;
30068;SDS011;16894;49.456;10.644;2023-10-19T13:21:22;1999.90;;;999.90;;
30068;SDS011;16894;49.456;10.644;2023-10-19T13:23:53;1999.90;;;999.90;;
30068;SDS011;16894;49.456;10.644;2023-10-19T13:26:18;1999.90;;;999.90;;
30068;SDS011;16894;49.456;10.644;2023-10-19T13:28:45;1999.90;;;999.90;;
30068;SDS011;16894;49.456;10.644;2023-10-19T13:31:12;1999.90;;;999.90;;
30068;SDS011;16894;49.456;10.644;2023-10-19T13:33:39;1999.90;;;999.90;;
30068;SDS011;16894;49.456;10.644;2023-10-19T13:36:09;1999.90;;;999.90;;
30068;SDS011;16894;49.456;10.644;2023-10-19T13:38:34;1999.90;;;999.90;;
30068;SDS011;16894;49.456;10.644;2023-10-19T13:41:06;1999.90;;;999.90;;
30068;SDS011;16894;49.456;10.644;2023-10-19T13:43:36;1999.90;;;999.90;;
30068;SDS011;16894;49.456;10.644;2023-10-19T13:46:02;1999.90;;;999.90;;
30068;SDS011;16894;49.456;10.644;2023-10-19T13:48:29;1999.90;;;999.90;;
30068;SDS011;16894;49.456;10.644;2023-10-19T13:50:56;1999.90;;;999.90;;
30068;SDS011;16894;49.456;10.644;2023-10-19T13:53:37;1999.90;;;999.90;;
30068;SDS011;16894;49.456;10.644;2023-10-19T13:56:06;1999.90;;;999.90;;
30068;SDS011;16894;49.456;10.644;2023-10-19T13:58:37;1999.90;;;999.90;;
30068;SDS011;16894;49.456;10.644;2023-10-19T14:01:10;1999.90;;;999.90;;
30068;SDS011;16894;49.456;10.644;2023-10-19T14:03:36;1999.90;;;999.90;;
30068;SDS011;16894;49.456;10.644;2023-10-19T14:06:03;1999.90;;;999.90;;
30068;SDS011;16894;49.456;10.644;2023-10-19T14:08:28;1999.90;;;999.90;;
30068;SDS011;16894;49.456;10.644;2023-10-19T14:11:00;1999.90;;;999.90;;
30068;SDS011;16894;49.456;10.644;2023-10-19T14:13:29;1999.90;;;999.90;;
30068;SDS011;16894;49.456;10.644;2023-10-19T14:15:55;1999.90;;;999.90;;
30068;SDS011;16894;49.456;10.644;2023-10-19T14:18:21;1999.90;;;999.90;;